sensor_id;sensor_type;location;lat;lon;timestamp;pressure;altitude;pressure_sealevel;temperature;humidity
74893;BME280;63446;56.272;43.922;2024-01-11T00:00:53;99627.25;;;-9.88;57.28
74893;BME280;63446;56.272;43.922;2024-01-11T00:03:19;99607.13;;;-9.91;57.28
74893;BME280;63446;56.272;43.922;2024-01-11T00:05:45;99606.03;;;-9.80;57.18
74893;BME280;63446;56.272;43.922;2024-01-11T00:08:10;99602.34;;;-9.77;57.11
74893;BME280;63446;56.272;43.922;2024-01-11T00:10:37;99598.69;;;-9.75;57.09
74893;BME280;63446;56.272;43.922;2024-01-11T00:13:04;99583.84;;;-9.71;57.13
74893;BME280;63446;56.272;43.922;2024-01-11T00:15:29;99575.84;;;-9.68;57.21
74893;BME280;63446;56.272;43.922;2024-01-11T00:17:56;99564.97;;;-9.70;57.16
74893;BME280;63446;56.272;43.922;2024-01-11T00:20:22;99559.88;;;-9.62;57.20
74893;BME280;63446;56.272;43.922;2024-01-11T00:22:48;99542.63;;;-9.60;56.95
74893;BME280;63446;56.272;43.922;2024-01-11T00:25:14;99536.84;;;-9.62;57.05
74893;BME280;63446;56.272;43.922;2024-01-11T00:27:40;99520.72;;;-9.54;56.95
74893;BME280;63446;56.272;43.922;2024-01-11T00:30:06;99504.25;;;-9.52;56.94
74893;BME280;63446;56.272;43.922;2024-01-11T00:32:33;99504.25;;;-9.52;56.76
74893;BME280;63446;56.272;43.922;2024-01-11T00:34:58;99492.88;;;-9.49;56.94
74893;BME280;63446;56.272;43.922;2024-01-11T00:37:24;99480.91;;;-9.49;56.92
74893;BME280;63446;56.272;43.922;2024-01-11T00:39:51;99475.47;;;-9.46;56.97
74893;BME280;63446;56.272;43.922;2024-01-11T00:42:18;99457.91;;;-9.49;57.09
74893;BME280;63446;56.272;43.922;2024-01-11T00:44:44;99462.03;;;-9.40;57.17
74893;BME280;63446;56.272;43.922;2024-01-11T00:47:11;99456.75;;;-9.38;57.11
74893;BME280;63446;56.272;43.922;2024-01-11T00:49:37;99430.06;;;-9.44;57.03
74893;BME280;63446;56.272;43.922;2024-01-11T00:52:03;99441.88;;;-9.35;57.06
74893;BME280;63446;56.272;43.922;2024-01-11T00:54:29;99424.59;;;-9.32;56.73
74893;BME280;63446;56.272;43.922;2024-01-11T00:56:55;99410.69;;;-9.38;56.79
74893;BME280;63446;56.272;43.922;2024-01-11T00:59:21;99411.63;;;-9.31;56.83
74893;BME280;63446;56.272;43.922;2024-01-11T01:01:48;99391.34;;;-9.32;56.76
74893;BME280;63446;56.272;43.922;2024-01-11T01:04:14;99384.47;;;-9.32;56.74
74893;BME280;63446;56.272;43.922;2024-01-11T01:06:41;99366.88;;;-9.35;56.82
74893;BME280;63446;56.272;43.922;2024-01-11T01:09:07;99356.78;;;-9.28;56.87
74893;BME280;63446;56.272;43.922;2024-01-11T01:11:33;99348.94;;;-9.27;56.62
74893;BME280;63446;56.272;43.922;2024-01-11T01:13:59;99333.59;;;-9.27;56.58
74893;BME280;63446;56.272;43.922;2024-01-11T01:16:25;99314.88;;;-9.27;56.40
74893;BME280;63446;56.272;43.922;2024-01-11T01:18:51;99311.19;;;-9.25;56.56
74893;BME280;63446;56.272;43.922;2024-01-11T01:21:16;99293.16;;;-9.31;56.60
74893;BME280;63446;56.272;43.922;2024-01-11T01:23:42;99288.00;;;-9.23;56.59
74893;BME280;63446;56.272;43.922;2024-01-11T01:26:08;99271.22;;;-9.26;56.50
74893;BME280;63446;56.272;43.922;2024-01-11T01:28:34;99256.94;;;-9.20;56.42
74893;BME280;63446;56.272;43.922;2024-01-11T01:31:00;99240.53;;;-9.26;56.54
74893;BME280;63446;56.272;43.922;2024-01-11T01:33:26;99235.34;;;-9.18;56.62
74893;BME280;63446;56.272;43.922;2024-01-11T01:35:51;99217.13;;;-9.23;56.56
74893;BME280;63446;56.272;43.922;2024-01-11T01:38:17;99204.94;;;-9.13;56.54
74893;BME280;63446;56.272;43.922;2024-01-11T01:40:43;99214.03;;;-9.10;56.58
74893;BME280;63446;56.272;43.922;2024-01-11T01:43:09;99198.31;;;-9.07;56.60
74893;BME280;63446;56.272;43.922;2024-01-11T01:45:35;99182.00;;;-9.06;56.43
74893;BME280;63446;56.272;43.922;2024-01-11T01:48:02;99174.78;;;-9.02;56.43
74893;BME280;63446;56.272;43.922;2024-01-11T01:50:28;99165.34;;;-9.02;56.54
74893;BME280;63446;56.272;43.922;2024-01-11T01:52:54;99157.31;;;-8.99;56.40
74893;BME280;63446;56.272;43.922;2024-01-11T01:55:22;99142.75;;;-8.98;56.30
74893;BME280;63446;56.272;43.922;2024-01-11T01:57:48;99129.50;;;-9.02;56.32
74893;BME280;63446;56.272;43.922;2024-01-11T02:00:16;99121.13;;;-8.96;56.30
74893;BME280;63446;56.272;43.922;2024-01-11T02:02:44;99117.78;;;-8.96;56.26
74893;BME280;63446;56.272;43.922;2024-01-11T02:05:14;99098.53;;;-8.92;56.32
74893;BME280;63446;56.272;43.922;2024-01-11T02:07:40;99092.47;;;-8.91;56.32
74893;BME280;63446;56.272;43.922;2024-01-11T02:10:09;99085.38;;;-8.89;56.26
74893;BME280;63446;56.272;43.922;2024-01-11T02:12:36;99073.03;;;-8.86;56.13
74893;BME280;63446;56.272;43.922;2024-01-11T02:15:05;99062.59;;;-8.84;56.30
74893;BME280;63446;56.272;43.922;2024-01-11T02:17:36;99039.41;;;-8.82;56.06
74893;BME280;63446;56.272;43.922;2024-01-11T02:20:02;99027.22;;;-8.80;56.00
74893;BME280;63446;56.272;43.922;2024-01-11T02:22:35;99022.09;;;-8.80;56.13
74893;BME280;63446;56.272;43.922;2024-01-11T02:25:03;98999.03;;;-8.80;56.07
74893;BME280;63446;56.272;43.922;2024-01-11T02:27:31;98982.09;;;-8.81;56.01
74893;BME280;63446;56.272;43.922;2024-01-11T02:29:56;98982.72;;;-8.79;56.01
74893;BME280;63446;56.272;43.922;2024-01-11T02:32:22;98957.28;;;-8.81;56.05
74893;BME280;63446;56.272;43.922;2024-01-11T02:34:49;98950.38;;;-8.80;56.02
74893;BME280;63446;56.272;43.922;2024-01-11T02:37:16;98946.88;;;-8.79;56.20
74893;BME280;63446;56.272;43.922;2024-01-11T02:39:42;98930.53;;;-8.78;56.30
74893;BME280;63446;56.272;43.922;2024-01-11T02:42:08;98921.28;;;-8.79;56.26
74893;BME280;63446;56.272;43.922;2024-01-11T02:44:34;98911.63;;;-8.77;56.48
74893;BME280;63446;56.272;43.922;2024-01-11T02:46:59;98905.53;;;-8.76;56.58
74893;BME280;63446;56.272;43.922;2024-01-11T02:49:25;98882.31;;;-8.75;56.66
74893;BME280;63446;56.272;43.922;2024-01-11T02:51:51;98871.09;;;-8.74;56.62
74893;BME280;63446;56.272;43.922;2024-01-11T02:54:17;98860.69;;;-8.72;56.62
74893;BME280;63446;56.272;43.922;2024-01-11T02:56:43;98845.94;;;-8.70;56.76
74893;BME280;63446;56.272;43.922;2024-01-11T02:59:09;98844.94;;;-8.69;56.77
74893;BME280;63446;56.272;43.922;2024-01-11T03:01:35;98811.41;;;-8.74;56.73
74893;BME280;63446;56.272;43.922;2024-01-11T03:04:01;98803.38;;;-8.71;56.82
74893;BME280;63446;56.272;43.922;2024-01-11T03:06:27;98798.47;;;-8.66;56.90
74893;BME280;63446;56.272;43.922;2024-01-11T03:08:53;98773.66;;;-8.66;56.93
74893;BME280;63446;56.272;43.922;2024-01-11T03:11:19;98771.91;;;-8.65;56.83
74893;BME280;63446;56.272;43.922;2024-01-11T03:13:45;98762.63;;;-8.66;56.80
74893;BME280;63446;56.272;43.922;2024-01-11T03:16:11;98748.84;;;-8.65;56.83
74893;BME280;63446;56.272;43.922;2024-01-11T03:18:37;98730.91;;;-8.65;56.86
74893;BME280;63446;56.272;43.922;2024-01-11T03:21:03;98740.56;;;-8.67;57.05
74893;BME280;63446;56.272;43.922;2024-01-11T03:23:29;98718.13;;;-8.65;57.07
74893;BME280;63446;56.272;43.922;2024-01-11T03:25:56;98693.25;;;-8.71;57.09
74893;BME280;63446;56.272;43.922;2024-01-11T03:28:21;98688.97;;;-8.64;57.13
74893;BME280;63446;56.272;43.922;2024-01-11T03:30:47;98676.91;;;-8.70;57.34
74893;BME280;63446;56.272;43.922;2024-01-11T03:33:13;98669.28;;;-8.64;57.36
74893;BME280;63446;56.272;43.922;2024-01-11T03:35:39;98664.94;;;-8.63;57.50
74893;BME280;63446;56.272;43.922;2024-01-11T03:38:06;98639.13;;;-8.62;57.44
74893;BME280;63446;56.272;43.922;2024-01-11T03:40:33;98622.41;;;-8.64;57.45
74893;BME280;63446;56.272;43.922;2024-01-11T03:42:59;98616.50;;;-8.58;57.60
74893;BME280;63446;56.272;43.922;2024-01-11T03:45:25;98608.81;;;-8.58;57.54
74893;BME280;63446;56.272;43.922;2024-01-11T03:47:51;98574.75;;;-8.58;57.71
74893;BME280;63446;56.272;43.922;2024-01-11T03:50:17;98557.59;;;-8.65;57.74
74893;BME280;63446;56.272;43.922;2024-01-11T03:52:45;98571.41;;;-8.59;57.76
74893;BME280;63446;56.272;43.922;2024-01-11T03:55:11;98541.03;;;-8.62;57.83
74893;BME280;63446;56.272;43.922;2024-01-11T03:57:37;98546.78;;;-8.60;57.80
74893;BME280;63446;56.272;43.922;2024-01-11T04:00:03;98545.00;;;-8.59;57.91
74893;BME280;63446;56.272;43.922;2024-01-11T04:02:30;98531.41;;;-8.60;58.04
74893;BME280;63446;56.272;43.922;2024-01-11T04:04:57;98527.25;;;-8.61;58.27
74893;BME280;63446;56.272;43.922;2024-01-11T04:07:22;98521.16;;;-8.60;58.12
74893;BME280;63446;56.272;43.922;2024-01-11T04:09:48;98513.47;;;-8.60;58.34
74893;BME280;63446;56.272;43.922;2024-01-11T04:12:14;98502.25;;;-8.59;58.46
74893;BME280;63446;56.272;43.922;2024-01-11T04:14:40;98487.47;;;-8.64;58.45
74893;BME280;63446;56.272;43.922;2024-01-11T04:17:06;98485.50;;;-8.55;58.57
74893;BME280;63446;56.272;43.922;2024-01-11T04:19:32;98483.56;;;-8.53;58.71
74893;BME280;63446;56.272;43.922;2024-01-11T04:21:58;98461.69;;;-8.55;58.62
74893;BME280;63446;56.272;43.922;2024-01-11T04:24:24;98461.72;;;-8.49;58.65
74893;BME280;63446;56.272;43.922;2024-01-11T04:26:50;98449.69;;;-8.48;58.62
74893;BME280;63446;56.272;43.922;2024-01-11T04:29:16;98448.50;;;-8.46;58.85
74893;BME280;63446;56.272;43.922;2024-01-11T04:31:45;98449.88;;;-8.43;58.82
74893;BME280;63446;56.272;43.922;2024-01-11T04:34:10;98440.25;;;-8.41;58.79
74893;BME280;63446;56.272;43.922;2024-01-11T04:36:39;98429.78;;;-8.40;58.90
74893;BME280;63446;56.272;43.922;2024-01-11T04:39:06;98421.69;;;-8.37;58.99
74893;BME280;63446;56.272;43.922;2024-01-11T04:41:35;98417.75;;;-8.32;58.96
74893;BME280;63446;56.272;43.922;2024-01-11T04:44:03;98397.88;;;-8.37;59.03
74893;BME280;63446;56.272;43.922;2024-01-11T04:46:29;98401.19;;;-8.37;59.06
74893;BME280;63446;56.272;43.922;2024-01-11T04:48:55;98386.41;;;-8.35;59.07
74893;BME280;63446;56.272;43.922;2024-01-11T04:51:21;98392.34;;;-8.27;58.95
74893;BME280;63446;56.272;43.922;2024-01-11T04:53:47;98389.59;;;-8.26;59.14
74893;BME280;63446;56.272;43.922;2024-01-11T04:56:14;98374.00;;;-8.24;59.23
74893;BME280;63446;56.272;43.922;2024-01-11T04:58:42;98361.81;;;-8.22;59.08
74893;BME280;63446;56.272;43.922;2024-01-11T05:01:12;98369.88;;;-8.19;59.22
74893;BME280;63446;56.272;43.922;2024-01-11T05:03:38;98358.25;;;-8.15;59.20
74893;BME280;63446;56.272;43.922;2024-01-11T05:06:04;98347.59;;;-8.12;59.15
74893;BME280;63446;56.272;43.922;2024-01-11T05:08:30;98345.44;;;-8.08;59.21
74893;BME280;63446;56.272;43.922;2024-01-11T05:10:56;98325.53;;;-8.13;59.35
74893;BME280;63446;56.272;43.922;2024-01-11T05:13:22;98317.44;;;-8.03;59.49
74893;BME280;63446;56.272;43.922;2024-01-11T05:15:48;98311.91;;;-8.00;59.47
74893;BME280;63446;56.272;43.922;2024-01-11T05:18:14;98313.06;;;-7.96;59.37
74893;BME280;63446;56.272;43.922;2024-01-11T05:20:40;98289.03;;;-7.95;59.61
74893;BME280;63446;56.272;43.922;2024-01-11T05:23:06;98289.59;;;-7.93;59.62
74893;BME280;63446;56.272;43.922;2024-01-11T05:25:32;98281.53;;;-7.90;59.70
74893;BME280;63446;56.272;43.922;2024-01-11T05:28:01;98272.44;;;-7.86;59.56
74893;BME280;63446;56.272;43.922;2024-01-11T05:30:28;98271.44;;;-7.84;59.61
74893;BME280;63446;56.272;43.922;2024-01-11T05:32:54;98271.84;;;-7.81;59.64
74893;BME280;63446;56.272;43.922;2024-01-11T05:35:22;98254.28;;;-7.77;59.55
74893;BME280;63446;56.272;43.922;2024-01-11T05:37:53;98243.00;;;-7.76;59.48
74893;BME280;63446;56.272;43.922;2024-01-11T05:40:22;98227.84;;;-7.78;59.73
74893;BME280;63446;56.272;43.922;2024-01-11T05:42:49;98225.84;;;-7.69;59.67
74893;BME280;63446;56.272;43.922;2024-01-11T05:45:15;98216.19;;;-7.67;59.68
74893;BME280;63446;56.272;43.922;2024-01-11T05:47:43;98210.63;;;-7.64;59.72
74893;BME280;63446;56.272;43.922;2024-01-11T05:50:10;98186.97;;;-7.73;59.69
74893;BME280;63446;56.272;43.922;2024-01-11T05:52:37;98202.34;;;-7.59;59.68
74893;BME280;63446;56.272;43.922;2024-01-11T05:55:03;98186.72;;;-7.58;59.74
74893;BME280;63446;56.272;43.922;2024-01-11T05:57:30;98167.59;;;-7.55;59.52
74893;BME280;63446;56.272;43.922;2024-01-11T05:59:55;98160.28;;;-7.58;59.65
74893;BME280;63446;56.272;43.922;2024-01-11T06:02:21;98162.03;;;-7.52;59.84
74893;BME280;63446;56.272;43.922;2024-01-11T06:04:48;98152.34;;;-7.50;59.89
74893;BME280;63446;56.272;43.922;2024-01-11T06:07:15;98140.91;;;-7.48;59.74
74893;BME280;63446;56.272;43.922;2024-01-11T06:09:41;98133.78;;;-7.46;59.69
74893;BME280;63446;56.272;43.922;2024-01-11T06:12:08;98131.00;;;-7.44;59.56
74893;BME280;63446;56.272;43.922;2024-01-11T06:14:35;98124.31;;;-7.45;59.57
74893;BME280;63446;56.272;43.922;2024-01-11T06:17:02;98111.28;;;-7.44;59.57
74893;BME280;63446;56.272;43.922;2024-01-11T06:19:28;98104.94;;;-7.41;59.64
74893;BME280;63446;56.272;43.922;2024-01-11T06:21:54;98095.09;;;-7.44;59.71
74893;BME280;63446;56.272;43.922;2024-01-11T06:24:20;98092.28;;;-7.36;59.71
74893;BME280;63446;56.272;43.922;2024-01-11T06:26:46;98087.72;;;-7.34;59.87
74893;BME280;63446;56.272;43.922;2024-01-11T06:29:13;98073.91;;;-7.33;59.73
74893;BME280;63446;56.272;43.922;2024-01-11T06:31:39;98062.47;;;-7.37;59.70
74893;BME280;63446;56.272;43.922;2024-01-11T06:34:05;98058.09;;;-7.30;59.82
74893;BME280;63446;56.272;43.922;2024-01-11T06:36:31;98063.78;;;-7.28;59.68
74893;BME280;63446;56.272;43.922;2024-01-11T06:38:57;98052.31;;;-7.25;59.78
74893;BME280;63446;56.272;43.922;2024-01-11T06:41:23;98042.63;;;-7.23;59.76
74893;BME280;63446;56.272;43.922;2024-01-11T06:43:48;98032.16;;;-7.22;59.75
74893;BME280;63446;56.272;43.922;2024-01-11T06:46:19;98033.50;;;-7.19;59.70
74893;BME280;63446;56.272;43.922;2024-01-11T06:48:45;98023.88;;;-7.24;59.78
74893;BME280;63446;56.272;43.922;2024-01-11T06:51:20;98024.97;;;-7.13;59.83
74893;BME280;63446;56.272;43.922;2024-01-11T06:53:47;98024.53;;;-7.10;59.83
74893;BME280;63446;56.272;43.922;2024-01-11T06:56:19;98003.00;;;-7.09;59.68
74893;BME280;63446;56.272;43.922;2024-01-11T06:58:46;97994.16;;;-7.13;59.80
74893;BME280;63446;56.272;43.922;2024-01-11T07:01:13;97997.22;;;-7.04;59.64
74893;BME280;63446;56.272;43.922;2024-01-11T07:03:39;97992.47;;;-7.01;59.73
74893;BME280;63446;56.272;43.922;2024-01-11T07:06:06;97987.91;;;-6.99;59.82
74893;BME280;63446;56.272;43.922;2024-01-11T07:08:32;97981.91;;;-6.93;59.82
74893;BME280;63446;56.272;43.922;2024-01-11T07:11:02;97987.19;;;-6.88;59.77
74893;BME280;63446;56.272;43.922;2024-01-11T07:13:29;97970.44;;;-6.90;59.71
74893;BME280;63446;56.272;43.922;2024-01-11T07:15:54;97969.47;;;-6.77;59.93
74893;BME280;63446;56.272;43.922;2024-01-11T07:18:23;97955.22;;;-6.73;59.80
74893;BME280;63446;56.272;43.922;2024-01-11T07:20:50;97945.09;;;-6.68;59.83
74893;BME280;63446;56.272;43.922;2024-01-11T07:23:16;97944.63;;;-6.65;59.73
74893;BME280;63446;56.272;43.922;2024-01-11T07:25:42;97939.06;;;-6.62;59.84
74893;BME280;63446;56.272;43.922;2024-01-11T07:28:09;97947.38;;;-6.60;59.77
74893;BME280;63446;56.272;43.922;2024-01-11T07:30:35;97938.22;;;-6.56;59.68
74893;BME280;63446;56.272;43.922;2024-01-11T07:33:00;97935.78;;;-6.51;59.75
74893;BME280;63446;56.272;43.922;2024-01-11T07:35:26;97921.59;;;-6.53;59.96
74893;BME280;63446;56.272;43.922;2024-01-11T07:37:53;97915.91;;;-6.44;59.81
74893;BME280;63446;56.272;43.922;2024-01-11T07:40:19;97913.69;;;-6.40;59.58
74893;BME280;63446;56.272;43.922;2024-01-11T07:42:45;97907.19;;;-6.43;59.60
74893;BME280;63446;56.272;43.922;2024-01-11T07:45:11;97896.72;;;-6.41;59.61
74893;BME280;63446;56.272;43.922;2024-01-11T07:47:39;97892.69;;;-6.37;59.77
74893;BME280;63446;56.272;43.922;2024-01-11T07:50:06;97905.22;;;-6.29;59.80
74893;BME280;63446;56.272;43.922;2024-01-11T07:52:35;97887.78;;;-6.27;59.72
74893;BME280;63446;56.272;43.922;2024-01-11T07:55:03;97887.34;;;-6.24;59.76
74893;BME280;63446;56.272;43.922;2024-01-11T07:57:34;97873.72;;;-6.24;59.81
74893;BME280;63446;56.272;43.922;2024-01-11T08:00:00;97870.28;;;-6.18;59.74
74893;BME280;63446;56.272;43.922;2024-01-11T08:02:27;97876.31;;;-6.12;59.77
74893;BME280;63446;56.272;43.922;2024-01-11T08:04:53;97869.94;;;-6.10;59.87
74893;BME280;63446;56.272;43.922;2024-01-11T08:07:19;97857.78;;;-6.03;59.87
74893;BME280;63446;56.272;43.922;2024-01-11T08:09:46;97865.59;;;-5.98;59.73
74893;BME280;63446;56.272;43.922;2024-01-11T08:12:12;97846.38;;;-5.95;59.72
74893;BME280;63446;56.272;43.922;2024-01-11T08:14:39;97843.09;;;-5.91;59.79
74893;BME280;63446;56.272;43.922;2024-01-11T08:17:05;97824.56;;;-5.93;59.63
74893;BME280;63446;56.272;43.922;2024-01-11T08:19:31;97833.25;;;-5.82;59.72
74893;BME280;63446;56.272;43.922;2024-01-11T08:21:59;97823.19;;;-5.83;59.72
74893;BME280;63446;56.272;43.922;2024-01-11T08:24:24;97815.69;;;-5.73;59.80
74893;BME280;63446;56.272;43.922;2024-01-11T08:26:51;97818.81;;;-5.71;59.81
74893;BME280;63446;56.272;43.922;2024-01-11T08:29:17;97817.38;;;-5.67;59.78
74893;BME280;63446;56.272;43.922;2024-01-11T08:31:45;97805.03;;;-5.65;59.75
74893;BME280;63446;56.272;43.922;2024-01-11T08:34:11;97788.97;;;-5.72;59.89
74893;BME280;63446;56.272;43.922;2024-01-11T08:36:37;97796.88;;;-5.62;59.84
74893;BME280;63446;56.272;43.922;2024-01-11T08:39:05;97803.59;;;-5.61;59.95
74893;BME280;63446;56.272;43.922;2024-01-11T08:41:34;97791.53;;;-5.60;59.90
74893;BME280;63446;56.272;43.922;2024-01-11T08:44:09;97794.19;;;-5.55;59.97
74893;BME280;63446;56.272;43.922;2024-01-11T08:46:35;97783.31;;;-5.57;60.08
74893;BME280;63446;56.272;43.922;2024-01-11T08:49:01;97782.50;;;-5.46;60.05
74893;BME280;63446;56.272;43.922;2024-01-11T08:51:31;97790.34;;;-5.41;59.94
74893;BME280;63446;56.272;43.922;2024-01-11T08:54:00;97786.00;;;-5.41;60.15
74893;BME280;63446;56.272;43.922;2024-01-11T08:56:25;97772.19;;;-5.34;60.04
74893;BME280;63446;56.272;43.922;2024-01-11T08:58:52;97780.09;;;-5.24;60.17
74893;BME280;63446;56.272;43.922;2024-01-11T09:01:18;97770.69;;;-5.19;60.02
74893;BME280;63446;56.272;43.922;2024-01-11T09:03:43;97767.97;;;-5.12;60.05
74893;BME280;63446;56.272;43.922;2024-01-11T09:06:10;97752.19;;;-5.16;59.95
74893;BME280;63446;56.272;43.922;2024-01-11T09:08:37;97756.50;;;-5.04;60.05
74893;BME280;63446;56.272;43.922;2024-01-11T09:11:02;97753.72;;;-5.03;59.94
74893;BME280;63446;56.272;43.922;2024-01-11T09:13:29;97749.34;;;-5.02;59.89
74893;BME280;63446;56.272;43.922;2024-01-11T09:15:55;97745.22;;;-5.03;59.65
74893;BME280;63446;56.272;43.922;2024-01-11T09:18:21;97743.41;;;-5.03;59.72
74893;BME280;63446;56.272;43.922;2024-01-11T09:20:47;97748.00;;;-5.05;59.66
74893;BME280;63446;56.272;43.922;2024-01-11T09:23:15;97740.97;;;-5.09;59.78
74893;BME280;63446;56.272;43.922;2024-01-11T09:25:42;97741.84;;;-5.04;59.84
74893;BME280;63446;56.272;43.922;2024-01-11T09:28:08;97736.47;;;-5.02;59.97
74893;BME280;63446;56.272;43.922;2024-01-11T09:30:34;97727.97;;;-5.03;59.96
74893;BME280;63446;56.272;43.922;2024-01-11T09:33:00;97730.31;;;-5.01;60.03
74893;BME280;63446;56.272;43.922;2024-01-11T09:35:28;97730.06;;;-5.00;60.02
74893;BME280;63446;56.272;43.922;2024-01-11T09:37:54;97728.03;;;-4.98;60.09
74893;BME280;63446;56.272;43.922;2024-01-11T09:40:20;97729.38;;;-4.95;60.24
74893;BME280;63446;56.272;43.922;2024-01-11T09:42:46;97730.16;;;-4.95;60.20
74893;BME280;63446;56.272;43.922;2024-01-11T09:45:16;97720.19;;;-4.91;60.18
74893;BME280;63446;56.272;43.922;2024-01-11T09:47:46;97709.31;;;-4.93;60.21
74893;BME280;63446;56.272;43.922;2024-01-11T09:50:15;97702.84;;;-4.96;60.33
74893;BME280;63446;56.272;43.922;2024-01-11T09:52:48;97713.53;;;-4.87;60.18
74893;BME280;63446;56.272;43.922;2024-01-11T09:55:16;97712.28;;;-4.84;60.23
74893;BME280;63446;56.272;43.922;2024-01-11T09:57:45;97713.63;;;-4.82;60.36
74893;BME280;63446;56.272;43.922;2024-01-11T10:00:13;97713.41;;;-4.80;60.23
74893;BME280;63446;56.272;43.922;2024-01-11T10:02:42;97713.94;;;-4.78;60.31
74893;BME280;63446;56.272;43.922;2024-01-11T10:05:09;97709.34;;;-4.76;60.39
74893;BME280;63446;56.272;43.922;2024-01-11T10:07:36;97694.25;;;-4.84;60.40
74893;BME280;63446;56.272;43.922;2024-01-11T10:10:02;97699.03;;;-4.76;60.63
74893;BME280;63446;56.272;43.922;2024-01-11T10:12:29;97694.41;;;-4.74;60.66
74893;BME280;63446;56.272;43.922;2024-01-11T10:15:05;97703.31;;;-4.65;60.63
74893;BME280;63446;56.272;43.922;2024-01-11T10:17:31;97703.84;;;-4.63;60.63
74893;BME280;63446;56.272;43.922;2024-01-11T10:19:58;97685.75;;;-4.68;60.76
74893;BME280;63446;56.272;43.922;2024-01-11T10:22:25;97697.47;;;-4.60;60.75
74893;BME280;63446;56.272;43.922;2024-01-11T10:24:50;97694.63;;;-4.59;60.86
74893;BME280;63446;56.272;43.922;2024-01-11T10:27:17;97691.84;;;-4.57;61.02
74893;BME280;63446;56.272;43.922;2024-01-11T10:29:42;97690.72;;;-4.61;61.10
74893;BME280;63446;56.272;43.922;2024-01-11T10:32:10;97698.09;;;-4.53;61.08
74893;BME280;63446;56.272;43.922;2024-01-11T10:34:36;97695.72;;;-4.55;61.40
74893;BME280;63446;56.272;43.922;2024-01-11T10:37:05;97696.81;;;-4.51;61.25
74893;BME280;63446;56.272;43.922;2024-01-11T10:39:32;97707.75;;;-4.44;61.40
74893;BME280;63446;56.272;43.922;2024-01-11T10:42:05;97714.00;;;-4.39;61.44
74893;BME280;63446;56.272;43.922;2024-01-11T10:44:34;97715.84;;;-4.35;61.44
74893;BME280;63446;56.272;43.922;2024-01-11T10:47:02;97706.88;;;-4.32;61.52
74893;BME280;63446;56.272;43.922;2024-01-11T10:49:32;97704.34;;;-4.27;61.43
74893;BME280;63446;56.272;43.922;2024-01-11T10:52:01;97701.09;;;-4.23;61.45
74893;BME280;63446;56.272;43.922;2024-01-11T10:54:28;97692.84;;;-4.20;61.58
74893;BME280;63446;56.272;43.922;2024-01-11T10:56:58;97691.34;;;-4.15;61.48
74893;BME280;63446;56.272;43.922;2024-01-11T10:59:32;97690.66;;;-4.11;61.50
74893;BME280;63446;56.272;43.922;2024-01-11T11:02:04;97700.47;;;-4.08;61.60
74893;BME280;63446;56.272;43.922;2024-01-11T11:04:35;97703.38;;;-4.04;61.53
74893;BME280;63446;56.272;43.922;2024-01-11T11:07:04;97701.56;;;-4.04;61.59
74893;BME280;63446;56.272;43.922;2024-01-11T11:09:34;97701.09;;;-4.01;61.57
74893;BME280;63446;56.272;43.922;2024-01-11T11:12:00;97702.94;;;-3.96;61.61
74893;BME280;63446;56.272;43.922;2024-01-11T11:14:28;97699.38;;;-3.95;61.75
74893;BME280;63446;56.272;43.922;2024-01-11T11:16:53;97699.06;;;-3.99;61.78
74893;BME280;63446;56.272;43.922;2024-01-11T11:19:21;97700.44;;;-3.91;61.83
74893;BME280;63446;56.272;43.922;2024-01-11T11:21:49;97703.34;;;-3.87;61.76
74893;BME280;63446;56.272;43.922;2024-01-11T11:24:16;97710.81;;;-3.86;61.79
74893;BME280;63446;56.272;43.922;2024-01-11T11:26:43;97705.41;;;-3.84;61.81
74893;BME280;63446;56.272;43.922;2024-01-11T11:29:09;97703.38;;;-3.82;61.79
74893;BME280;63446;56.272;43.922;2024-01-11T11:31:45;97701.28;;;-3.85;61.67
74893;BME280;63446;56.272;43.922;2024-01-11T11:34:20;97703.88;;;-3.85;61.59
74893;BME280;63446;56.272;43.922;2024-01-11T11:36:50;97707.94;;;-3.89;61.69
74893;BME280;63446;56.272;43.922;2024-01-11T11:39:21;97717.19;;;-3.94;61.56
74893;BME280;63446;56.272;43.922;2024-01-11T11:41:47;97716.09;;;-3.98;61.68
74893;BME280;63446;56.272;43.922;2024-01-11T11:44:15;97710.63;;;-4.01;61.56
74893;BME280;63446;56.272;43.922;2024-01-11T11:46:43;97719.63;;;-4.04;61.79
74893;BME280;63446;56.272;43.922;2024-01-11T11:49:10;97721.13;;;-4.08;61.84
74893;BME280;63446;56.272;43.922;2024-01-11T11:51:39;97728.09;;;-4.08;61.78
74893;BME280;63446;56.272;43.922;2024-01-11T11:54:08;97723.41;;;-4.11;62.02
74893;BME280;63446;56.272;43.922;2024-01-11T11:56:35;97734.50;;;-4.11;62.06
74893;BME280;63446;56.272;43.922;2024-01-11T11:59:02;97734.72;;;-4.12;62.26
74893;BME280;63446;56.272;43.922;2024-01-11T12:01:31;97731.63;;;-4.14;62.27
74893;BME280;63446;56.272;43.922;2024-01-11T12:03:57;97733.19;;;-4.13;62.22
74893;BME280;63446;56.272;43.922;2024-01-11T12:06:22;97728.81;;;-4.13;62.22
74893;BME280;63446;56.272;43.922;2024-01-11T12:08:52;97737.56;;;-4.14;62.45
74893;BME280;63446;56.272;43.922;2024-01-11T12:11:20;97752.00;;;-4.13;62.44
74893;BME280;63446;56.272;43.922;2024-01-11T12:13:48;97740.38;;;-4.15;62.50
74893;BME280;63446;56.272;43.922;2024-01-11T12:16:14;97742.72;;;-4.14;62.46
74893;BME280;63446;56.272;43.922;2024-01-11T12:18:41;97756.41;;;-4.13;62.44
74893;BME280;63446;56.272;43.922;2024-01-11T12:21:10;97757.16;;;-4.13;62.50
74893;BME280;63446;56.272;43.922;2024-01-11T12:23:38;97758.97;;;-4.13;62.47
74893;BME280;63446;56.272;43.922;2024-01-11T12:26:06;97772.13;;;-4.15;62.51
74893;BME280;63446;56.272;43.922;2024-01-11T12:28:39;97763.88;;;-4.12;62.67
74893;BME280;63446;56.272;43.922;2024-01-11T12:31:06;97759.50;;;-4.11;62.58
74893;BME280;63446;56.272;43.922;2024-01-11T12:33:32;97760.06;;;-4.09;62.77
74893;BME280;63446;56.272;43.922;2024-01-11T12:36:00;97761.09;;;-4.10;62.68
74893;BME280;63446;56.272;43.922;2024-01-11T12:38:26;97773.97;;;-4.10;62.90
74893;BME280;63446;56.272;43.922;2024-01-11T12:40:52;97779.34;;;-4.12;62.80
74893;BME280;63446;56.272;43.922;2024-01-11T12:43:18;97774.75;;;-4.10;62.86
74893;BME280;63446;56.272;43.922;2024-01-11T12:45:45;97778.13;;;-4.09;62.85
74893;BME280;63446;56.272;43.922;2024-01-11T12:48:11;97782.97;;;-4.13;62.81